sensor_id;sensor_type;location;lat;lon;timestamp;P1;durP1;ratioP1;P2;durP2;ratioP2
58360;SDS011;44164;44.954;10.068;2023-04-03T00:01:40;3.53;;;1.50;;
58360;SDS011;44164;44.954;10.068;2023-04-03T00:04:07;2.78;;;1.60;;
58360;SDS011;44164;44.954;10.068;2023-04-03T00:06:33;3.28;;;1.42;;
58360;SDS011;44164;44.954;10.068;2023-04-03T00:09:00;2.67;;;1.80;;
58360;SDS011;44164;44.954;10.068;2023-04-03T00:11:26;2.72;;;1.67;;
58360;SDS011;44164;44.954;10.068;2023-04-03T00:13:52;2.63;;;1.60;;
58360;SDS011;44164;44.954;10.068;2023-04-03T00:16:19;3.05;;;1.58;;
58360;SDS011;44164;44.954;10.068;2023-04-03T00:18:45;2.67;;;1.75;;
58360;SDS011;44164;44.954;10.068;2023-04-03T00:21:12;2.38;;;1.40;;
58360;SDS011;44164;44.954;10.068;2023-04-03T00:23:38;3.60;;;1.77;;
58360;SDS011;44164;44.954;10.068;2023-04-03T00:26:05;2.70;;;1.60;;
58360;SDS011;44164;44.954;10.068;2023-04-03T00:28:31;1.60;;;1.30;;
58360;SDS011;44164;44.954;10.068;2023-04-03T00:30:57;2.05;;;1.60;;
58360;SDS011;44164;44.954;10.068;2023-04-03T00:33:23;2.67;;;1.67;;
58360;SDS011;44164;44.954;10.068;2023-04-03T00:35:50;3.67;;;1.50;;
58360;SDS011;44164;44.954;10.068;2023-04-03T00:38:16;2.85;;;1.83;;
58360;SDS011;44164;44.954;10.068;2023-04-03T00:40:43;3.15;;;1.65;;
58360;SDS011;44164;44.954;10.068;2023-04-03T00:43:13;3.35;;;1.85;;
58360;SDS011;44164;44.954;10.068;2023-04-03T00:45:51;2.35;;;1.50;;
58360;SDS011;44164;44.954;10.068;2023-04-03T00:48:23;2.00;;;1.33;;
58360;SDS011;44164;44.954;10.068;2023-04-03T00:51:22;3.00;;;1.60;;
58360;SDS011;44164;44.954;10.068;2023-04-03T00:56:17;2.67;;;1.35;;
58360;SDS011;44164;44.954;10.068;2023-04-03T00:58:46;2.92;;;1.83;;
58360;SDS011;44164;44.954;10.068;2023-04-03T01:01:33;2.60;;;1.50;;
58360;SDS011;44164;44.954;10.068;2023-04-03T01:04:01;2.00;;;1.30;;
58360;SDS011;44164;44.954;10.068;2023-04-03T01:06:30;2.25;;;1.65;;
58360;SDS011;44164;44.954;10.068;2023-04-03T01:09:06;2.17;;;1.35;;
58360;SDS011;44164;44.954;10.068;2023-04-03T01:11:32;2.58;;;1.70;;
58360;SDS011;44164;44.954;10.068;2023-04-03T01:14:00;2.00;;;1.55;;
58360;SDS011;44164;44.954;10.068;2023-04-03T01:16:27;3.03;;;1.80;;
58360;SDS011;44164;44.954;10.068;2023-04-03T01:18:58;2.17;;;1.40;;
58360;SDS011;44164;44.954;10.068;2023-04-03T01:24:04;2.55;;;1.63;;
58360;SDS011;44164;44.954;10.068;2023-04-03T01:26:35;2.67;;;1.40;;
58360;SDS011;44164;44.954;10.068;2023-04-03T01:29:02;2.50;;;1.42;;
58360;SDS011;44164;44.954;10.068;2023-04-03T01:31:41;2.75;;;1.60;;
58360;SDS011;44164;44.954;10.068;2023-04-03T01:34:08;1.88;;;1.33;;
58360;SDS011;44164;44.954;10.068;2023-04-03T01:36:35;2.22;;;1.30;;
58360;SDS011;44164;44.954;10.068;2023-04-03T01:39:01;3.63;;;1.60;;
58360;SDS011;44164;44.954;10.068;2023-04-03T01:41:28;2.10;;;1.30;;
58360;SDS011;44164;44.954;10.068;2023-04-03T01:44:01;2.42;;;1.55;;
58360;SDS011;44164;44.954;10.068;2023-04-03T01:46:29;2.63;;;1.48;;
58360;SDS011;44164;44.954;10.068;2023-04-03T01:48:56;2.30;;;1.52;;
58360;SDS011;44164;44.954;10.068;2023-04-03T01:51:22;2.47;;;1.67;;
58360;SDS011;44164;44.954;10.068;2023-04-03T01:53:48;3.78;;;1.55;;
58360;SDS011;44164;44.954;10.068;2023-04-03T01:56:14;3.75;;;1.63;;
58360;SDS011;44164;44.954;10.068;2023-04-03T01:58:41;2.33;;;1.40;;
58360;SDS011;44164;44.954;10.068;2023-04-03T02:01:07;2.97;;;2.00;;
58360;SDS011;44164;44.954;10.068;2023-04-03T02:03:33;1.98;;;1.40;;
58360;SDS011;44164;44.954;10.068;2023-04-03T02:05:59;2.50;;;1.40;;
58360;SDS011;44164;44.954;10.068;2023-04-03T02:08:26;2.67;;;1.65;;
58360;SDS011;44164;44.954;10.068;2023-04-03T02:10:52;3.20;;;1.35;;
58360;SDS011;44164;44.954;10.068;2023-04-03T02:13:19;3.20;;;1.48;;
58360;SDS011;44164;44.954;10.068;2023-04-03T02:15:45;1.83;;;1.20;;
58360;SDS011;44164;44.954;10.068;2023-04-03T02:18:12;2.38;;;1.20;;
58360;SDS011;44164;44.954;10.068;2023-04-03T02:20:38;2.53;;;1.40;;
58360;SDS011;44164;44.954;10.068;2023-04-03T02:23:05;1.98;;;1.45;;
58360;SDS011;44164;44.954;10.068;2023-04-03T02:25:31;3.55;;;1.30;;
58360;SDS011;44164;44.954;10.068;2023-04-03T02:27:58;2.10;;;1.30;;
58360;SDS011;44164;44.954;10.068;2023-04-03T02:30:24;2.58;;;1.52;;
58360;SDS011;44164;44.954;10.068;2023-04-03T02:32:50;1.98;;;1.40;;
58360;SDS011;44164;44.954;10.068;2023-04-03T02:35:17;2.78;;;1.38;;
58360;SDS011;44164;44.954;10.068;2023-04-03T02:37:43;2.40;;;1.58;;
58360;SDS011;44164;44.954;10.068;2023-04-03T02:40:09;2.15;;;1.35;;
58360;SDS011;44164;44.954;10.068;2023-04-03T02:42:37;3.83;;;1.42;;
58360;SDS011;44164;44.954;10.068;2023-04-03T02:45:03;2.08;;;1.38;;
58360;SDS011;44164;44.954;10.068;2023-04-03T02:47:30;2.50;;;1.33;;
58360;SDS011;44164;44.954;10.068;2023-04-03T02:49:57;2.20;;;1.63;;
58360;SDS011;44164;44.954;10.068;2023-04-03T02:52:23;1.88;;;1.27;;
58360;SDS011;44164;44.954;10.068;2023-04-03T02:54:50;2.38;;;1.30;;
58360;SDS011;44164;44.954;10.068;2023-04-03T02:57:17;2.03;;;1.30;;
58360;SDS011;44164;44.954;10.068;2023-04-03T02:59:43;2.88;;;1.20;;
58360;SDS011;44164;44.954;10.068;2023-04-03T03:02:11;2.42;;;1.30;;
58360;SDS011;44164;44.954;10.068;2023-04-03T03:04:37;2.17;;;1.52;;
58360;SDS011;44164;44.954;10.068;2023-04-03T03:07:03;2.95;;;1.50;;
58360;SDS011;44164;44.954;10.068;2023-04-03T03:09:29;2.13;;;1.35;;
58360;SDS011;44164;44.954;10.068;2023-04-03T03:11:56;2.40;;;0.98;;
58360;SDS011;44164;44.954;10.068;2023-04-03T03:14:23;2.50;;;1.27;;
58360;SDS011;44164;44.954;10.068;2023-04-03T03:16:49;1.98;;;1.15;;
58360;SDS011;44164;44.954;10.068;2023-04-03T03:19:15;1.92;;;1.27;;
58360;SDS011;44164;44.954;10.068;2023-04-03T03:21:42;1.98;;;1.27;;
58360;SDS011;44164;44.954;10.068;2023-04-03T03:24:08;1.90;;;1.20;;
58360;SDS011;44164;44.954;10.068;2023-04-03T03:26:34;2.47;;;1.42;;
58360;SDS011;44164;44.954;10.068;2023-04-03T03:29:01;2.10;;;1.25;;
58360;SDS011;44164;44.954;10.068;2023-04-03T03:31:28;2.50;;;1.30;;
58360;SDS011;44164;44.954;10.068;2023-04-03T03:33:54;1.98;;;1.17;;
58360;SDS011;44164;44.954;10.068;2023-04-03T03:36:22;2.22;;;1.30;;
58360;SDS011;44164;44.954;10.068;2023-04-03T03:38:48;2.45;;;1.00;;
58360;SDS011;44164;44.954;10.068;2023-04-03T03:41:14;2.20;;;1.25;;
58360;SDS011;44164;44.954;10.068;2023-04-03T03:43:42;2.08;;;1.30;;
58360;SDS011;44164;44.954;10.068;2023-04-03T03:46:08;1.77;;;1.10;;
58360;SDS011;44164;44.954;10.068;2023-04-03T03:48:34;1.95;;;1.10;;
58360;SDS011;44164;44.954;10.068;2023-04-03T03:51:01;2.25;;;1.20;;
58360;SDS011;44164;44.954;10.068;2023-04-03T03:53:31;2.47;;;1.30;;
58360;SDS011;44164;44.954;10.068;2023-04-03T03:56:02;1.75;;;1.15;;
58360;SDS011;44164;44.954;10.068;2023-04-03T03:58:30;2.13;;;1.23;;
58360;SDS011;44164;44.954;10.068;2023-04-03T04:00:56;1.95;;;1.00;;
58360;SDS011;44164;44.954;10.068;2023-04-03T04:03:26;2.38;;;1.23;;
58360;SDS011;44164;44.954;10.068;2023-04-03T04:05:53;1.77;;;0.93;;
58360;SDS011;44164;44.954;10.068;2023-04-03T04:08:19;2.55;;;1.20;;
58360;SDS011;44164;44.954;10.068;2023-04-03T04:10:45;2.05;;;1.30;;
58360;SDS011;44164;44.954;10.068;2023-04-03T04:15:40;2.53;;;1.13;;
58360;SDS011;44164;44.954;10.068;2023-04-03T04:18:06;1.98;;;1.17;;
58360;SDS011;44164;44.954;10.068;2023-04-03T04:20:33;3.25;;;1.10;;
58360;SDS011;44164;44.954;10.068;2023-04-03T04:23:00;3.50;;;1.23;;
58360;SDS011;44164;44.954;10.068;2023-04-03T04:25:26;3.38;;;1.35;;
58360;SDS011;44164;44.954;10.068;2023-04-03T04:27:53;2.58;;;1.33;;
58360;SDS011;44164;44.954;10.068;2023-04-03T04:30:19;2.83;;;1.27;;
58360;SDS011;44164;44.954;10.068;2023-04-03T04:32:47;1.95;;;1.20;;
58360;SDS011;44164;44.954;10.068;2023-04-03T04:35:14;2.22;;;1.23;;
58360;SDS011;44164;44.954;10.068;2023-04-03T04:37:42;2.67;;;1.25;;
58360;SDS011;44164;44.954;10.068;2023-04-03T04:40:09;1.92;;;1.10;;
58360;SDS011;44164;44.954;10.068;2023-04-03T04:42:36;3.55;;;1.40;;
58360;SDS011;44164;44.954;10.068;2023-04-03T04:45:02;1.85;;;1.13;;
58360;SDS011;44164;44.954;10.068;2023-04-03T04:47:29;1.77;;;1.08;;
58360;SDS011;44164;44.954;10.068;2023-04-03T04:49:55;3.05;;;1.30;;
58360;SDS011;44164;44.954;10.068;2023-04-03T04:52:22;4.72;;;1.00;;
58360;SDS011;44164;44.954;10.068;2023-04-03T04:54:48;3.05;;;1.25;;
58360;SDS011;44164;44.954;10.068;2023-04-03T04:57:14;2.63;;;1.27;;
58360;SDS011;44164;44.954;10.068;2023-04-03T04:59:41;2.35;;;1.30;;
58360;SDS011;44164;44.954;10.068;2023-04-03T05:02:07;2.65;;;1.30;;
58360;SDS011;44164;44.954;10.068;2023-04-03T05:04:34;1.50;;;0.90;;
58360;SDS011;44164;44.954;10.068;2023-04-03T05:07:07;2.10;;;1.15;;
58360;SDS011;44164;44.954;10.068;2023-04-03T05:09:35;1.20;;;0.80;;
58360;SDS011;44164;44.954;10.068;2023-04-03T05:12:01;2.13;;;1.10;;
58360;SDS011;44164;44.954;10.068;2023-04-03T05:14:35;1.60;;;0.90;;
58360;SDS011;44164;44.954;10.068;2023-04-03T05:17:05;4.00;;;1.35;;
58360;SDS011;44164;44.954;10.068;2023-04-03T05:19:35;3.80;;;1.30;;
58360;SDS011;44164;44.954;10.068;2023-04-03T05:22:02;2.17;;;1.23;;
58360;SDS011;44164;44.954;10.068;2023-04-03T05:24:29;2.65;;;1.40;;
58360;SDS011;44164;44.954;10.068;2023-04-03T05:26:55;1.65;;;1.20;;
58360;SDS011;44164;44.954;10.068;2023-04-03T05:29:22;2.22;;;1.10;;
58360;SDS011;44164;44.954;10.068;2023-04-03T05:31:49;1.75;;;1.05;;
58360;SDS011;44164;44.954;10.068;2023-04-03T05:34:16;1.85;;;1.20;;
58360;SDS011;44164;44.954;10.068;2023-04-03T05:36:44;2.38;;;1.20;;
58360;SDS011;44164;44.954;10.068;2023-04-03T05:39:11;1.90;;;0.90;;
58360;SDS011;44164;44.954;10.068;2023-04-03T05:41:41;2.28;;;1.02;;
58360;SDS011;44164;44.954;10.068;2023-04-03T05:44:07;2.78;;;1.42;;
58360;SDS011;44164;44.954;10.068;2023-04-03T05:46:33;2.70;;;1.15;;
58360;SDS011;44164;44.954;10.068;2023-04-03T05:49:03;9.48;;;2.60;;
58360;SDS011;44164;44.954;10.068;2023-04-03T05:51:33;6.95;;;1.83;;
58360;SDS011;44164;44.954;10.068;2023-04-03T05:54:12;5.38;;;1.52;;
58360;SDS011;44164;44.954;10.068;2023-04-03T05:56:58;3.30;;;1.60;;
58360;SDS011;44164;44.954;10.068;2023-04-03T05:59:25;3.90;;;1.63;;
58360;SDS011;44164;44.954;10.068;2023-04-03T06:01:54;5.88;;;1.90;;
58360;SDS011;44164;44.954;10.068;2023-04-03T06:04:21;6.43;;;1.75;;
58360;SDS011;44164;44.954;10.068;2023-04-03T06:09:17;4.28;;;1.83;;
58360;SDS011;44164;44.954;10.068;2023-04-03T06:11:44;4.70;;;2.15;;
58360;SDS011;44164;44.954;10.068;2023-04-03T06:14:10;5.97;;;1.77;;
58360;SDS011;44164;44.954;10.068;2023-04-03T06:16:37;4.07;;;1.55;;
58360;SDS011;44164;44.954;10.068;2023-04-03T06:19:10;8.05;;;1.60;;
58360;SDS011;44164;44.954;10.068;2023-04-03T06:21:41;3.58;;;1.58;;
58360;SDS011;44164;44.954;10.068;2023-04-03T06:24:07;3.92;;;1.42;;
58360;SDS011;44164;44.954;10.068;2023-04-03T06:26:35;4.93;;;1.85;;
58360;SDS011;44164;44.954;10.068;2023-04-03T06:29:01;7.85;;;2.05;;
58360;SDS011;44164;44.954;10.068;2023-04-03T06:31:27;3.58;;;1.67;;
58360;SDS011;44164;44.954;10.068;2023-04-03T06:33:54;3.60;;;1.60;;
58360;SDS011;44164;44.954;10.068;2023-04-03T06:36:20;5.55;;;1.80;;
58360;SDS011;44164;44.954;10.068;2023-04-03T06:38:47;4.93;;;2.05;;
58360;SDS011;44164;44.954;10.068;2023-04-03T06:41:14;5.15;;;1.63;;
58360;SDS011;44164;44.954;10.068;2023-04-03T06:43:42;5.82;;;1.60;;
58360;SDS011;44164;44.954;10.068;2023-04-03T06:46:18;3.35;;;1.40;;
58360;SDS011;44164;44.954;10.068;2023-04-03T06:48:48;7.70;;;1.60;;
58360;SDS011;44164;44.954;10.068;2023-04-03T06:51:19;8.35;;;1.58;;
58360;SDS011;44164;44.954;10.068;2023-04-03T06:53:55;3.38;;;1.45;;
58360;SDS011;44164;44.954;10.068;2023-04-03T06:56:23;3.97;;;1.33;;
58360;SDS011;44164;44.954;10.068;2023-04-03T06:58:49;4.00;;;1.52;;
58360;SDS011;44164;44.954;10.068;2023-04-03T07:01:17;4.23;;;1.27;;
58360;SDS011;44164;44.954;10.068;2023-04-03T07:06:12;5.30;;;1.80;;
58360;SDS011;44164;44.954;10.068;2023-04-03T07:08:38;6.18;;;1.80;;
58360;SDS011;44164;44.954;10.068;2023-04-03T07:11:05;3.17;;;1.73;;
58360;SDS011;44164;44.954;10.068;2023-04-03T07:13:31;5.95;;;1.50;;
58360;SDS011;44164;44.954;10.068;2023-04-03T07:15:58;4.53;;;1.83;;
58360;SDS011;44164;44.954;10.068;2023-04-03T07:18:25;4.00;;;1.48;;
58360;SDS011;44164;44.954;10.068;2023-04-03T07:20:51;5.30;;;1.73;;
58360;SDS011;44164;44.954;10.068;2023-04-03T07:23:18;6.63;;;1.70;;
58360;SDS011;44164;44.954;10.068;2023-04-03T07:25:44;3.15;;;1.30;;
58360;SDS011;44164;44.954;10.068;2023-04-03T07:28:12;3.20;;;1.65;;
58360;SDS011;44164;44.954;10.068;2023-04-03T07:30:42;3.28;;;1.60;;
58360;SDS011;44164;44.954;10.068;2023-04-03T07:33:09;6.93;;;1.52;;
58360;SDS011;44164;44.954;10.068;2023-04-03T07:35:35;4.15;;;1.50;;
58360;SDS011;44164;44.954;10.068;2023-04-03T07:38:01;3.30;;;1.63;;
58360;SDS011;44164;44.954;10.068;2023-04-03T07:40:27;4.68;;;1.70;;
58360;SDS011;44164;44.954;10.068;2023-04-03T07:42:53;4.07;;;1.88;;
58360;SDS011;44164;44.954;10.068;2023-04-03T07:45:22;4.65;;;2.10;;
58360;SDS011;44164;44.954;10.068;2023-04-03T07:47:48;3.75;;;1.92;;
58360;SDS011;44164;44.954;10.068;2023-04-03T07:50:14;3.45;;;2.03;;
58360;SDS011;44164;44.954;10.068;2023-04-03T07:52:41;5.20;;;1.75;;
58360;SDS011;44164;44.954;10.068;2023-04-03T07:55:08;4.97;;;1.90;;
58360;SDS011;44164;44.954;10.068;2023-04-03T07:57:34;5.03;;;1.90;;
58360;SDS011;44164;44.954;10.068;2023-04-03T08:00:01;5.47;;;1.60;;
58360;SDS011;44164;44.954;10.068;2023-04-03T08:02:37;4.55;;;2.20;;
58360;SDS011;44164;44.954;10.068;2023-04-03T08:05:03;6.85;;;2.13;;
58360;SDS011;44164;44.954;10.068;2023-04-03T08:07:30;10.65;;;2.50;;
58360;SDS011;44164;44.954;10.068;2023-04-03T08:09:56;5.35;;;2.40;;
58360;SDS011;44164;44.954;10.068;2023-04-03T08:12:22;3.75;;;2.05;;
58360;SDS011;44164;44.954;10.068;2023-04-03T08:14:48;5.35;;;2.35;;
58360;SDS011;44164;44.954;10.068;2023-04-03T08:17:15;7.10;;;2.60;;
58360;SDS011;44164;44.954;10.068;2023-04-03T08:19:41;3.80;;;1.98;;
58360;SDS011;44164;44.954;10.068;2023-04-03T08:22:07;3.50;;;2.22;;
58360;SDS011;44164;44.954;10.068;2023-04-03T08:24:34;5.75;;;2.53;;
58360;SDS011;44164;44.954;10.068;2023-04-03T08:27:00;7.03;;;2.50;;
58360;SDS011;44164;44.954;10.068;2023-04-03T08:29:27;7.03;;;2.08;;
58360;SDS011;44164;44.954;10.068;2023-04-03T08:31:53;6.03;;;2.00;;
58360;SDS011;44164;44.954;10.068;2023-04-03T08:34:19;7.78;;;2.25;;
58360;SDS011;44164;44.954;10.068;2023-04-03T08:36:46;7.13;;;2.55;;
58360;SDS011;44164;44.954;10.068;2023-04-03T08:39:12;4.88;;;2.55;;
58360;SDS011;44164;44.954;10.068;2023-04-03T08:41:43;7.88;;;2.95;;
58360;SDS011;44164;44.954;10.068;2023-04-03T08:55:01;9.18;;;2.92;;
58360;SDS011;44164;44.954;10.068;2023-04-03T09:00:06;9.20;;;3.35;;
58360;SDS011;44164;44.954;10.068;2023-04-03T09:02:42;8.20;;;4.00;;
58360;SDS011;44164;44.954;10.068;2023-04-03T09:05:18;9.15;;;4.10;;
58360;SDS011;44164;44.954;10.068;2023-04-03T09:07:46;9.00;;;4.28;;
58360;SDS011;44164;44.954;10.068;2023-04-03T09:10:18;8.88;;;4.00;;
58360;SDS011;44164;44.954;10.068;2023-04-03T09:12:52;7.38;;;3.60;;
58360;SDS011;44164;44.954;10.068;2023-04-03T09:15:32;6.80;;;3.83;;
58360;SDS011;44164;44.954;10.068;2023-04-03T09:18:02;13.73;;;4.78;;
58360;SDS011;44164;44.954;10.068;2023-04-03T09:23:03;11.73;;;4.03;;
58360;SDS011;44164;44.954;10.068;2023-04-03T09:25:36;9.68;;;4.47;;
58360;SDS011;44164;44.954;10.068;2023-04-03T09:28:04;7.28;;;4.03;;
58360;SDS011;44164;44.954;10.068;2023-04-03T09:30:35;5.80;;;3.50;;
58360;SDS011;44164;44.954;10.068;2023-04-03T09:33:01;12.77;;;3.60;;
58360;SDS011;44164;44.954;10.068;2023-04-03T09:35:28;10.23;;;3.22;;
58360;SDS011;44164;44.954;10.068;2023-04-03T09:40:47;7.45;;;3.47;;
58360;SDS011;44164;44.954;10.068;2023-04-03T09:46:24;5.55;;;2.88;;
58360;SDS011;44164;44.954;10.068;2023-04-03T09:49:01;7.90;;;2.65;;
58360;SDS011;44164;44.954;10.068;2023-04-03T09:51:29;7.35;;;3.33;;
58360;SDS011;44164;44.954;10.068;2023-04-03T09:56:25;4.82;;;2.50;;
58360;SDS011;44164;44.954;10.068;2023-04-03T10:06:47;7.03;;;2.47;;
58360;SDS011;44164;44.954;10.068;2023-04-03T10:09:23;6.13;;;2.20;;
58360;SDS011;44164;44.954;10.068;2023-04-03T10:12:03;6.90;;;3.20;;
58360;SDS011;44164;44.954;10.068;2023-04-03T10:14:33;5.97;;;2.00;;
58360;SDS011;44164;44.954;10.068;2023-04-03T10:19:34;5.70;;;1.90;;
58360;SDS011;44164;44.954;10.068;2023-04-03T10:25:02;3.33;;;2.10;;
58360;SDS011;44164;44.954;10.068;2023-04-03T10:27:34;5.03;;;1.80;;
58360;SDS011;44164;44.954;10.068;2023-04-03T10:30:41;3.95;;;1.55;;
58360;SDS011;44164;44.954;10.068;2023-04-03T10:36:07;4.25;;;1.67;;
58360;SDS011;44164;44.954;10.068;2023-04-03T10:38:48;4.15;;;1.40;;
58360;SDS011;44164;44.954;10.068;2023-04-03T10:50:27;3.78;;;1.15;;
58360;SDS011;44164;44.954;10.068;2023-04-03T10:55:34;3.60;;;1.50;;
58360;SDS011;44164;44.954;10.068;2023-04-03T10:58:04;5.22;;;1.73;;
58360;SDS011;44164;44.954;10.068;2023-04-03T11:03:28;4.88;;;1.33;;
58360;SDS011;44164;44.954;10.068;2023-04-03T11:06:02;3.95;;;1.50;;
58360;SDS011;44164;44.954;10.068;2023-04-03T11:11:51;4.53;;;1.52;;
58360;SDS011;44164;44.954;10.068;2023-04-03T11:14:26;5.32;;;1.52;;
58360;SDS011;44164;44.954;10.068;2023-04-03T11:16:59;4.40;;;1.20;;
58360;SDS011;44164;44.954;10.068;2023-04-03T11:20:04;3.13;;;1.17;;
58360;SDS011;44164;44.954;10.068;2023-04-03T11:27:54;3.17;;;1.50;;
58360;SDS011;44164;44.954;10.068;2023-04-03T11:30:31;2.70;;;1.27;;
58360;SDS011;44164;44.954;10.068;2023-04-03T11:35:51;4.72;;;1.20;;
58360;SDS011;44164;44.954;10.068;2023-04-03T11:38:23;1.95;;;1.13;;
58360;SDS011;44164;44.954;10.068;2023-04-03T11:40:55;3.75;;;1.25;;
58360;SDS011;44164;44.954;10.068;2023-04-03T11:53:33;3.08;;;1.55;;
58360;SDS011;44164;44.954;10.068;2023-04-03T11:56:01;2.17;;;1.13;;
58360;SDS011;44164;44.954;10.068;2023-04-03T11:59:15;3.08;;;1.20;;
58360;SDS011;44164;44.954;10.068;2023-04-03T12:04:11;2.42;;;1.45;;
58360;SDS011;44164;44.954;10.068;2023-04-03T12:09:22;2.63;;;1.10;;
58360;SDS011;44164;44.954;10.068;2023-04-03T12:11:50;4.38;;;1.25;;
58360;SDS011;44164;44.954;10.068;2023-04-03T12:14:17;3.17;;;1.20;;
58360;SDS011;44164;44.954;10.068;2023-04-03T12:16:45;2.85;;;1.20;;
58360;SDS011;44164;44.954;10.068;2023-04-03T12:24:25;3.08;;;1.38;;
58360;SDS011;44164;44.954;10.068;2023-04-03T12:34:43;3.75;;;1.45;;
58360;SDS011;44164;44.954;10.068;2023-04-03T12:45:25;3.33;;;1.17;;
58360;SDS011;44164;44.954;10.068;2023-04-03T12:47:55;1.95;;;1.05;;
58360;SDS011;44164;44.954;10.068;2023-04-03T12:50:23;5.13;;;1.25;;
58360;SDS011;44164;44.954;10.068;2023-04-03T12:55:27;2.78;;;1.05;;
58360;SDS011;44164;44.954;10.068;2023-04-03T12:57:53;3.08;;;1.00;;
58360;SDS011;44164;44.954;10.068;2023-04-03T13:02:55;3.47;;;0.93;;
58360;SDS011;44164;44.954;10.068;2023-04-03T13:05:21;2.30;;;0.98;;
58360;SDS011;44164;44.954;10.068;2023-04-03T13:07:49;2.50;;;1.02;;
58360;SDS011;44164;44.954;10.068;2023-04-03T13:10:45;4.57;;;0.88;;
58360;SDS011;44164;44.954;10.068;2023-04-03T13:13:16;2.20;;;1.02;;
58360;SDS011;44164;44.954;10.068;2023-04-03T13:15:47;3.00;;;1.08;;
58360;SDS011;44164;44.954;10.068;2023-04-03T13:18:31;1.50;;;0.90;;
58360;SDS011;44164;44.954;10.068;2023-04-03T13:21:00;3.03;;;0.95;;
58360;SDS011;44164;44.954;10.068;2023-04-03T13:23:31;5.00;;;1.15;;
58360;SDS011;44164;44.954;10.068;2023-04-03T13:25:58;2.63;;;0.88;;
58360;SDS011;44164;44.954;10.068;2023-04-03T13:28:29;4.78;;;1.10;;
58360;SDS011;44164;44.954;10.068;2023-04-03T13:30:58;2.73;;;1.13;;
58360;SDS011;44164;44.954;10.068;2023-04-03T13:33:25;2.45;;;0.93;;
58360;SDS011;44164;44.954;10.068;2023-04-03T13:36:02;1.75;;;0.90;;
58360;SDS011;44164;44.954;10.068;2023-04-03T13:38:31;2.15;;;1.23;;
58360;SDS011;44164;44.954;10.068;2023-04-03T13:41:21;1.80;;;0.80;;
58360;SDS011;44164;44.954;10.068;2023-04-03T13:43:52;1.88;;;1.15;;
58360;SDS011;44164;44.954;10.068;2023-04-03T13:48:46;1.85;;;0.80;;
58360;SDS011;44164;44.954;10.068;2023-04-03T13:53:45;2.42;;;1.02;;
58360;SDS011;44164;44.954;10.068;2023-04-03T13:56:20;3.55;;;1.05;;
58360;SDS011;44164;44.954;10.068;2023-04-03T14:01:21;2.53;;;0.80;;
58360;SDS011;44164;44.954;10.068;2023-04-03T14:03:55;1.90;;;0.90;;
58360;SDS011;44164;44.954;10.068;2023-04-03T14:06:23;3.03;;;0.80;;
58360;SDS011;44164;44.954;10.068;2023-04-03T14:08:49;2.67;;;1.00;;
58360;SDS011;44164;44.954;10.068;2023-04-03T14:11:20;1.58;;;0.85;;
58360;SDS011;44164;44.954;10.068;2023-04-03T14:13:49;1.45;;;0.85;;
58360;SDS011;44164;44.954;10.068;2023-04-03T14:16:22;1.65;;;0.82;;
58360;SDS011;44164;44.954;10.068;2023-04-03T14:18:51;1.77;;;0.90;;
58360;SDS011;44164;44.954;10.068;2023-04-03T14:21:18;1.45;;;0.75;;
58360;SDS011;44164;44.954;10.068;2023-04-03T14:23:45;1.17;;;0.68;;
58360;SDS011;44164;44.954;10.068;2023-04-03T14:26:13;4.63;;;0.80;;
58360;SDS011;44164;44.954;10.068;2023-04-03T14:28:42;2.20;;;0.98;;
58360;SDS011;44164;44.954;10.068;2023-04-03T14:31:09;3.17;;;0.93;;
58360;SDS011;44164;44.954;10.068;2023-04-03T14:33:36;2.08;;;1.13;;
58360;SDS011;44164;44.954;10.068;2023-04-03T14:36:16;2.42;;;0.90;;
58360;SDS011;44164;44.954;10.068;2023-04-03T14:38:45;3.00;;;1.10;;
58360;SDS011;44164;44.954;10.068;2023-04-03T14:41:12;3.20;;;1.00;;
58360;SDS011;44164;44.954;10.068;2023-04-03T14:46:11;1.73;;;0.70;;
58360;SDS011;44164;44.954;10.068;2023-04-03T14:48:39;1.00;;;0.60;;
58360;SDS011;44164;44.954;10.068;2023-04-03T14:51:06;2.10;;;0.90;;
58360;SDS011;44164;44.954;10.068;2023-04-03T14:53:32;2.55;;;1.10;;
58360;SDS011;44164;44.954;10.068;2023-04-03T14:55:58;1.60;;;0.80;;
58360;SDS011;44164;44.954;10.068;2023-04-03T14:58:24;2.05;;;0.90;;
58360;SDS011;44164;44.954;10.068;2023-04-03T15:00:50;3.30;;;0.80;;
58360;SDS011;44164;44.954;10.068;2023-04-03T15:03:18;2.03;;;0.85;;
58360;SDS011;44164;44.954;10.068;2023-04-03T15:05:46;3.63;;;1.10;;
58360;SDS011;44164;44.954;10.068;2023-04-03T15:08:23;1.98;;;0.80;;
58360;SDS011;44164;44.954;10.068;2023-04-03T15:10:51;3.10;;;1.10;;
58360;SDS011;44164;44.954;10.068;2023-04-03T15:13:22;2.30;;;0.80;;
58360;SDS011;44164;44.954;10.068;2023-04-03T15:15:49;3.30;;;0.90;;
58360;SDS011;44164;44.954;10.068;2023-04-03T15:18:25;2.25;;;0.73;;
58360;SDS011;44164;44.954;10.068;2023-04-03T15:20:52;3.38;;;1.08;;
58360;SDS011;44164;44.954;10.068;2023-04-03T15:23:19;3.07;;;0.90;;
58360;SDS011;44164;44.954;10.068;2023-04-03T15:25:46;3.40;;;1.00;;
58360;SDS011;44164;44.954;10.068;2023-04-03T15:28:24;6.18;;;0.95;;
58360;SDS011;44164;44.954;10.068;2023-04-03T15:30:56;3.25;;;0.75;;
58360;SDS011;44164;44.954;10.068;2023-04-03T15:33:22;2.90;;;0.77;;
58360;SDS011;44164;44.954;10.068;2023-04-03T15:35:49;1.70;;;0.90;;
58360;SDS011;44164;44.954;10.068;2023-04-03T15:38:15;2.03;;;0.90;;
58360;SDS011;44164;44.954;10.068;2023-04-03T15:40:41;2.80;;;1.08;;
58360;SDS011;44164;44.954;10.068;2023-04-03T15:43:08;5.25;;;0.95;;
58360;SDS011;44164;44.954;10.068;2023-04-03T15:45:35;3.65;;;0.98;;
58360;SDS011;44164;44.954;10.068;2023-04-03T15:48:02;3.35;;;1.08;;
58360;SDS011;44164;44.954;10.068;2023-04-03T15:50:30;2.83;;;1.25;;
58360;SDS011;44164;44.954;10.068;2023-04-03T15:52:57;3.88;;;1.13;;
58360;SDS011;44164;44.954;10.068;2023-04-03T15:55:25;4.50;;;0.90;;
58360;SDS011;44164;44.954;10.068;2023-04-03T15:57:51;2.83;;;0.80;;
58360;SDS011;44164;44.954;10.068;2023-04-03T16:00:18;2.20;;;1.00;;
58360;SDS011;44164;44.954;10.068;2023-04-03T16:02:46;2.53;;;0.93;;
58360;SDS011;44164;44.954;10.068;2023-04-03T16:05:13;2.40;;;0.80;;
58360;SDS011;44164;44.954;10.068;2023-04-03T16:07:42;1.92;;;0.90;;
58360;SDS011;44164;44.954;10.068;2023-04-03T16:10:10;5.25;;;0.80;;
58360;SDS011;44164;44.954;10.068;2023-04-03T16:12:36;3.88;;;1.00;;
58360;SDS011;44164;44.954;10.068;2023-04-03T16:15:03;2.65;;;0.80;;
58360;SDS011;44164;44.954;10.068;2023-04-03T16:17:31;2.70;;;0.80;;
58360;SDS011;44164;44.954;10.068;2023-04-03T16:19:58;2.35;;;0.73;;
58360;SDS011;44164;44.954;10.068;2023-04-03T16:22:24;4.00;;;0.90;;
58360;SDS011;44164;44.954;10.068;2023-04-03T16:24:51;2.25;;;0.75;;
58360;SDS011;44164;44.954;10.068;2023-04-03T16:27:17;2.83;;;1.05;;
58360;SDS011;44164;44.954;10.068;2023-04-03T16:29:44;2.05;;;0.85;;
58360;SDS011;44164;44.954;10.068;2023-04-03T16:32:10;2.13;;;1.00;;
58360;SDS011;44164;44.954;10.068;2023-04-03T16:34:37;2.42;;;1.13;;
58360;SDS011;44164;44.954;10.068;2023-04-03T16:37:03;1.48;;;0.70;;
58360;SDS011;44164;44.954;10.068;2023-04-03T16:39:29;4.45;;;1.20;;
58360;SDS011;44164;44.954;10.068;2023-04-03T16:41:55;3.75;;;1.13;;
58360;SDS011;44164;44.954;10.068;2023-04-03T16:44:21;4.38;;;1.00;;
58360;SDS011;44164;44.954;10.068;2023-04-03T16:46:48;3.50;;;0.98;;
58360;SDS011;44164;44.954;10.068;2023-04-03T16:49:14;3.45;;;1.23;;
58360;SDS011;44164;44.954;10.068;2023-04-03T16:51:40;2.45;;;1.17;;
58360;SDS011;44164;44.954;10.068;2023-04-03T16:54:06;2.55;;;0.95;;